createdAt,value
2017-05-24T00:00:01.847Z,25
2017-05-24T00:01:15.422Z,25
2017-05-24T00:02:28.962Z,25
2017-05-24T00:03:42.587Z,25
2017-05-24T00:04:56.222Z,25
2017-05-24T00:06:10.276Z,25
2017-05-24T00:07:24.513Z,25
2017-05-24T00:08:38.148Z,25
2017-05-24T00:09:52.049Z,25
2017-05-24T00:11:07.202Z,25
2017-05-24T00:12:21.161Z,25
2017-05-24T00:13:34.867Z,25
2017-05-24T00:14:48.748Z,25
2017-05-24T00:16:02.294Z,25
2017-05-24T00:17:16.192Z,25
2017-05-24T00:18:30.374Z,25
2017-05-24T00:19:43.991Z,25
2017-05-24T00:20:57.999Z,25
2017-05-24T00:22:11.877Z,25
2017-05-24T00:23:25.415Z,25
2017-05-24T00:24:39.337Z,25
2017-05-24T00:25:52.891Z,25
2017-05-24T00:27:06.457Z,25
2017-05-24T00:28:19.998Z,25
2017-05-24T00:29:33.589Z,25
2017-05-24T00:30:47.492Z,25
2017-05-24T00:32:01.059Z,25
2017-05-24T00:33:14.635Z,25
2017-05-24T00:34:28.569Z,25
2017-05-24T00:35:42.945Z,25
2017-05-24T00:36:56.800Z,25
2017-05-24T00:38:10.660Z,25
2017-05-24T00:39:24.250Z,25
2017-05-24T00:40:37.858Z,25
2017-05-24T00:41:51.736Z,25
2017-05-24T00:43:05.587Z,25
2017-05-24T00:44:19.137Z,25
2017-05-24T00:45:32.800Z,25
2017-05-24T00:46:46.656Z,25
2017-05-24T00:48:00.351Z,25
2017-05-24T00:49:14.241Z,25
2017-05-24T00:50:27.866Z,25
2017-05-24T00:51:41.485Z,25
2017-05-24T00:52:55.043Z,25
2017-05-24T00:54:08.597Z,25
2017-05-24T00:55:22.834Z,25
2017-05-24T00:56:36.617Z,25
2017-05-24T00:57:50.199Z,25
2017-05-24T00:59:03.764Z,25
2017-05-24T01:00:17.321Z,25
2017-05-24T01:01:31.585Z,25
2017-05-24T01:02:45.337Z,25
2017-05-24T01:03:58.928Z,25
2017-05-24T01:05:12.821Z,25
2017-05-24T01:06:26.822Z,25
2017-05-24T01:07:41.006Z,25
2017-05-24T01:08:54.715Z,25
2017-05-24T01:10:08.622Z,25
2017-05-24T01:11:22.515Z,25
2017-05-24T01:12:36.339Z,25
2017-05-24T01:13:50.711Z,25
2017-05-24T01:15:04.601Z,25
2017-05-24T01:16:18.197Z,25
2017-05-24T01:17:31.791Z,25
2017-05-24T01:18:45.390Z,25
2017-05-24T01:19:59.245Z,25
2017-05-24T01:21:13.114Z,25
2017-05-24T01:22:27.071Z,25
2017-05-24T01:23:40.645Z,25
2017-05-24T01:24:54.248Z,25
2017-05-24T01:26:08.189Z,25
2017-05-24T01:27:21.870Z,25
2017-05-24T01:28:35.505Z,25
2017-05-24T01:29:49.076Z,25
2017-05-24T01:31:02.659Z,25
2017-05-24T01:32:16.750Z,25
2017-05-24T01:33:30.706Z,25
2017-05-24T01:34:44.270Z,25
2017-05-24T01:35:57.826Z,25
2017-05-24T01:37:11.399Z,25
2017-05-24T01:38:25.851Z,25
2017-05-24T01:39:39.397Z,25
2017-05-24T01:40:52.934Z,25
2017-05-24T01:42:06.470Z,25
2017-05-24T01:43:20.022Z,25
2017-05-24T01:44:33.899Z,25
2017-05-24T01:45:47.514Z,25
2017-05-24T01:47:01.199Z,25
2017-05-24T01:48:14.752Z,25
2017-05-24T01:49:28.366Z,25
2017-05-24T01:50:42.223Z,25
2017-05-24T01:51:55.784Z,25
2017-05-24T01:53:09.288Z,25
2017-05-24T01:54:22.927Z,25
2017-05-24T01:55:36.551Z,25
2017-05-24T01:56:50.457Z,25
2017-05-24T01:58:04.047Z,25
2017-05-24T01:59:17.638Z,25
2017-05-24T02:00:31.235Z,25
2017-05-24T02:01:45.525Z,25
2017-05-24T02:02:59.761Z,25
2017-05-24T02:04:13.474Z,25
2017-05-24T02:05:27.366Z,25
2017-05-24T02:06:40.931Z,25
2017-05-24T02:07:54.490Z,25
2017-05-24T02:09:08.370Z,25
2017-05-24T02:10:22.407Z,25
2017-05-24T02:11:35.966Z,25
2017-05-24T02:12:49.570Z,25
2017-05-24T02:14:03.132Z,25
2017-05-24T02:15:16.995Z,25
2017-05-24T02:16:31.030Z,25
2017-05-24T02:17:44.886Z,25
2017-05-24T02:18:58.484Z,25
2017-05-24T02:20:12.036Z,25
2017-05-24T02:21:26.171Z,25
2017-05-24T02:22:39.741Z,25
2017-05-24T02:23:53.307Z,25
2017-05-24T02:25:07.359Z,25
2017-05-24T02:26:20.959Z,25
2017-05-24T02:27:35.213Z,25
2017-05-24T02:28:48.777Z,25
2017-05-24T02:30:02.330Z,25
2017-05-24T02:31:16.033Z,25
2017-05-24T02:32:29.611Z,25
2017-05-24T02:33:43.490Z,25
2017-05-24T02:34:57.033Z,25
2017-05-24T02:36:10.608Z,25
2017-05-24T02:37:24.837Z,25
2017-05-24T02:38:38.394Z,25
2017-05-24T02:39:52.740Z,25
2017-05-24T02:41:06.685Z,25
2017-05-24T02:42:20.734Z,25
2017-05-24T02:43:34.592Z,25
2017-05-24T02:44:48.147Z,25
2017-05-24T02:46:02.184Z,25
2017-05-24T02:47:15.762Z,25
2017-05-24T02:48:30.017Z,25
2017-05-24T02:49:43.573Z,25
2017-05-24T02:50:58.074Z,25
2017-05-24T02:52:12.353Z,25
2017-05-24T02:53:25.974Z,25
2017-05-24T02:54:39.746Z,24
2017-05-24T02:55:53.608Z,24
2017-05-24T02:57:07.515Z,24
2017-05-24T02:58:21.678Z,24
2017-05-24T02:59:35.234Z,24
2017-05-24T03:00:49.130Z,24
2017-05-24T03:02:03.086Z,24
2017-05-24T03:03:16.660Z,24
2017-05-24T03:04:30.577Z,24
2017-05-24T03:05:44.180Z,24
2017-05-24T03:06:57.867Z,24
2017-05-24T03:08:11.416Z,24
2017-05-24T03:09:24.993Z,24
2017-05-24T03:10:38.870Z,24
2017-05-24T03:11:52.511Z,24
2017-05-24T03:13:06.055Z,24
2017-05-24T03:14:19.927Z,24
2017-05-24T03:15:33.849Z,24
2017-05-24T03:16:47.825Z,24
2017-05-24T03:18:01.771Z,24
2017-05-24T03:19:15.701Z,24
2017-05-24T03:20:29.278Z,24
2017-05-24T03:21:43.078Z,24
2017-05-24T03:22:57.097Z,24
2017-05-24T03:24:10.983Z,24
2017-05-24T03:25:24.568Z,24
2017-05-24T03:26:38.126Z,24
2017-05-24T03:27:51.919Z,24
2017-05-24T03:29:05.801Z,24
2017-05-24T03:30:19.421Z,24
2017-05-24T03:31:33.042Z,24
2017-05-24T03:32:46.605Z,24
2017-05-24T03:34:00.349Z,24
2017-05-24T03:35:14.216Z,24
2017-05-24T03:36:28.240Z,24
2017-05-24T03:37:41.822Z,24
2017-05-24T03:38:55.551Z,24
2017-05-24T03:40:09.294Z,24
2017-05-24T03:41:23.329Z,24
2017-05-24T03:42:36.897Z,24
2017-05-24T03:43:51.244Z,24
2017-05-24T03:45:05.292Z,24
2017-05-24T03:46:18.917Z,24
2017-05-24T03:47:32.853Z,24
2017-05-24T03:48:46.842Z,24
2017-05-24T03:50:00.478Z,24
2017-05-24T03:51:14.046Z,24
2017-05-24T03:52:27.678Z,24
2017-05-24T03:53:41.659Z,24
2017-05-24T03:54:56.082Z,24
2017-05-24T03:56:09.736Z,24
2017-05-24T03:57:23.323Z,24
2017-05-24T03:58:36.969Z,24
2017-05-24T03:59:51.274Z,24
2017-05-24T04:01:05.007Z,24
2017-05-24T04:02:18.553Z,24
2017-05-24T04:03:32.454Z,24
2017-05-24T04:04:46.097Z,24
2017-05-24T04:06:00.032Z,24
2017-05-24T04:07:13.632Z,24
2017-05-24T04:08:27.231Z,24
2017-05-24T04:09:40.920Z,24
2017-05-24T04:10:54.854Z,24
2017-05-24T04:12:09.077Z,24
2017-05-24T04:13:22.746Z,24
2017-05-24T04:14:37.007Z,24
2017-05-24T04:15:50.654Z,24
2017-05-24T04:17:04.926Z,24
2017-05-24T04:18:18.901Z,24
2017-05-24T04:19:33.136Z,24
2017-05-24T04:20:46.818Z,25
2017-05-24T04:22:00.659Z,25
2017-05-24T04:23:22.082Z,25
2017-05-24T04:24:37.961Z,25
2017-05-24T04:25:52.604Z,26
2017-05-24T04:27:08.463Z,26
2017-05-24T04:28:38.260Z,27
2017-05-24T04:29:54.357Z,27
2017-05-24T04:31:11.616Z,27
2017-05-24T04:32:28.888Z,28
2017-05-24T04:33:44.892Z,28
2017-05-24T04:35:00.455Z,28
2017-05-24T04:36:16.697Z,28
2017-05-24T04:37:32.937Z,28
2017-05-24T04:38:51.392Z,28
2017-05-24T04:40:05.947Z,27
2017-05-24T04:41:20.639Z,27
2017-05-24T04:42:34.671Z,27
2017-05-24T04:43:48.693Z,27
2017-05-24T04:45:02.259Z,27
2017-05-24T04:46:16.228Z,27
2017-05-24T04:47:29.802Z,27
2017-05-24T04:48:44.183Z,28
2017-05-24T04:49:58.477Z,28
2017-05-24T04:51:12.121Z,28
2017-05-24T04:52:25.724Z,29
2017-05-24T04:53:39.329Z,29
2017-05-24T04:54:53.653Z,29
2017-05-24T04:56:07.571Z,30
2017-05-24T04:57:21.176Z,30
2017-05-24T04:58:35.154Z,30
2017-05-24T04:59:49.320Z,30
2017-05-24T05:01:03.308Z,31
2017-05-24T05:02:16.888Z,31
2017-05-24T05:03:30.631Z,31
2017-05-24T05:04:44.249Z,31
2017-05-24T05:05:57.874Z,31
2017-05-24T05:07:12.140Z,31
2017-05-24T05:08:25.870Z,31
2017-05-24T05:09:39.666Z,31
2017-05-24T05:10:53.363Z,31
2017-05-24T05:12:06.997Z,31
2017-05-24T05:13:20.878Z,31
2017-05-24T05:14:34.489Z,31
2017-05-24T05:15:48.101Z,31
2017-05-24T05:17:01.705Z,31
2017-05-24T05:18:15.409Z,31
2017-05-24T05:19:29.388Z,31
2017-05-24T05:20:43.050Z,31
2017-05-24T05:21:56.861Z,32
2017-05-24T05:23:10.503Z,32
2017-05-24T05:24:24.262Z,32
2017-05-24T05:25:38.535Z,32
2017-05-24T05:26:53.289Z,32
2017-05-24T05:28:07.379Z,32
2017-05-24T05:29:21.542Z,31
2017-05-24T05:30:35.154Z,31
2017-05-24T05:31:49.439Z,30
2017-05-24T05:33:03.038Z,30
2017-05-24T05:34:16.976Z,30
2017-05-24T05:35:30.639Z,29
2017-05-24T05:36:44.334Z,29
2017-05-24T05:37:58.570Z,29
2017-05-24T05:39:12.536Z,29
2017-05-24T05:40:26.165Z,28
2017-05-24T05:41:39.761Z,28
2017-05-24T05:42:53.487Z,28
2017-05-24T05:44:07.478Z,28
2017-05-24T05:45:21.750Z,28
2017-05-24T05:46:41.629Z,27
2017-05-24T05:47:55.869Z,27
2017-05-24T05:49:09.800Z,27
2017-05-24T05:50:23.770Z,27
2017-05-24T05:51:37.320Z,27
2017-05-24T05:52:50.917Z,27
2017-05-24T05:54:04.549Z,27
2017-05-24T05:55:18.296Z,27
2017-05-24T05:56:32.808Z,27
2017-05-24T05:57:46.560Z,27
2017-05-24T05:59:00.147Z,27
2017-05-24T06:00:13.886Z,27
2017-05-24T06:01:29.104Z,26
2017-05-24T06:02:43.008Z,26
2017-05-24T06:03:57.135Z,26
2017-05-24T06:05:11.693Z,26
2017-05-24T06:06:25.230Z,26
2017-05-24T06:10:51.500Z,26
2017-05-24T06:12:05.495Z,26
2017-05-24T06:13:19.058Z,26
2017-05-24T06:14:32.693Z,26
2017-05-24T06:15:46.346Z,26
2017-05-24T06:17:00.561Z,26
2017-05-24T06:18:14.302Z,26
2017-05-24T06:19:27.969Z,26
2017-05-24T06:20:41.662Z,26
2017-05-24T06:21:55.249Z,26
2017-05-24T06:23:09.168Z,26
2017-05-24T06:24:22.872Z,26
2017-05-24T06:25:36.545Z,26
2017-05-24T06:26:50.301Z,26
2017-05-24T06:28:03.922Z,26
2017-05-24T06:29:18.106Z,26
2017-05-24T06:30:31.696Z,26
2017-05-24T06:31:45.663Z,26
2017-05-24T06:32:59.352Z,26
2017-05-24T06:34:13.391Z,26
2017-05-24T06:35:27.624Z,26
2017-05-24T06:36:41.228Z,26
2017-05-24T06:37:54.824Z,26
2017-05-24T06:39:08.462Z,26
2017-05-24T06:40:22.432Z,26
2017-05-24T06:41:37.449Z,26
2017-05-24T06:42:51.102Z,26
2017-05-24T06:44:04.722Z,26
2017-05-24T06:45:19.018Z,26
2017-05-24T06:46:32.687Z,26
2017-05-24T06:47:46.645Z,26
2017-05-24T06:49:00.241Z,26
2017-05-24T06:50:14.297Z,26
2017-05-24T06:51:27.962Z,26
2017-05-24T06:52:42.078Z,26
2017-05-24T06:53:56.073Z,26
2017-05-24T06:55:10.122Z,26
2017-05-24T06:56:24.038Z,26
2017-05-24T06:57:38.095Z,26
2017-05-24T06:58:51.714Z,26
2017-05-24T07:00:05.667Z,26
2017-05-24T07:01:19.330Z,26
2017-05-24T07:02:33.106Z,26
2017-05-24T07:03:47.133Z,26
2017-05-24T07:05:00.802Z,26
2017-05-24T07:06:14.710Z,26
2017-05-24T07:07:28.927Z,26
2017-05-24T07:08:42.606Z,26
2017-05-24T07:09:56.549Z,26
2017-05-24T07:11:10.228Z,26
2017-05-24T07:12:24.196Z,26
2017-05-24T07:13:38.245Z,26
2017-05-24T07:14:51.956Z,26
2017-05-24T07:16:06.299Z,26
2017-05-24T07:17:20.004Z,26
2017-05-24T07:18:34.416Z,26
2017-05-24T07:19:48.392Z,26
2017-05-24T07:21:02.077Z,26
2017-05-24T07:22:15.738Z,26
2017-05-24T07:23:29.438Z,26
2017-05-24T07:24:43.380Z,26
2017-05-24T07:25:57.338Z,26
2017-05-24T07:27:10.982Z,26
2017-05-24T07:28:24.664Z,26
2017-05-24T07:29:38.356Z,26
2017-05-24T07:30:52.035Z,26
2017-05-24T07:32:06.051Z,26
2017-05-24T07:33:19.652Z,26
2017-05-24T07:34:33.649Z,26
2017-05-24T07:35:47.362Z,26
2017-05-24T07:37:01.345Z,26
2017-05-24T07:38:15.489Z,26
2017-05-24T07:39:29.162Z,26
2017-05-24T07:40:43.226Z,26
2017-05-24T07:41:56.963Z,26
2017-05-24T07:43:11.324Z,26
2017-05-24T07:46:52.578Z,26
2017-05-24T07:48:06.363Z,26
2017-05-24T07:49:20.164Z,26
2017-05-24T07:50:34.454Z,26
2017-05-24T07:51:48.220Z,26
2017-05-24T07:53:09.051Z,26
2017-05-24T07:54:24.341Z,26
2017-05-24T07:55:38.557Z,27
2017-05-24T07:56:52.416Z,27
2017-05-24T07:58:06.254Z,27
2017-05-24T07:59:20.546Z,27
2017-05-24T08:00:34.760Z,27
2017-05-24T08:01:48.601Z,27
2017-05-24T08:03:02.476Z,27
2017-05-24T08:04:17.515Z,27
2017-05-24T08:05:32.033Z,27
2017-05-24T08:06:46.583Z,27
2017-05-24T08:08:00.404Z,27
2017-05-24T08:09:14.251Z,27
2017-05-24T08:10:28.116Z,27
2017-05-24T08:11:42.418Z,27
2017-05-24T08:12:57.102Z,27
2017-05-24T08:14:11.308Z,27
2017-05-24T08:15:25.814Z,27
2017-05-24T08:16:39.690Z,27
2017-05-24T08:17:54.188Z,27
2017-05-24T08:19:08.725Z,27
2017-05-24T08:20:23.104Z,27
2017-05-24T08:21:37.319Z,27
2017-05-24T08:22:51.170Z,27
2017-05-24T08:24:05.300Z,27
2017-05-24T08:25:19.109Z,27
2017-05-24T08:26:33.916Z,27
2017-05-24T08:27:47.702Z,27
2017-05-24T08:29:01.479Z,27
2017-05-24T08:30:16.969Z,27
2017-05-24T08:31:31.492Z,27
2017-05-24T08:32:45.849Z,27
2017-05-24T08:33:59.710Z,27
2017-05-24T08:35:13.947Z,27
2017-05-24T08:36:29.038Z,27
2017-05-24T08:37:43.015Z,27
2017-05-24T08:38:56.875Z,27
2017-05-24T08:40:10.658Z,27
2017-05-24T08:41:24.563Z,27
2017-05-24T08:42:38.772Z,27
2017-05-24T08:43:52.685Z,27
2017-05-24T08:45:06.446Z,27
2017-05-24T08:46:20.325Z,27
2017-05-24T08:47:34.112Z,27
2017-05-24T08:48:48.271Z,27
2017-05-24T08:50:02.219Z,27
2017-05-24T08:51:16.982Z,27
2017-05-24T08:52:31.082Z,27
2017-05-24T08:53:45.007Z,27
2017-05-24T08:54:59.242Z,27
2017-05-24T08:56:13.275Z,27
2017-05-24T08:57:27.117Z,27
2017-05-24T08:58:40.966Z,27
2017-05-24T08:59:54.809Z,27
2017-05-24T09:01:08.980Z,27
2017-05-24T09:02:23.273Z,27
2017-05-24T09:03:38.437Z,27
2017-05-24T09:04:52.604Z,27
2017-05-24T09:06:06.422Z,27
2017-05-24T09:07:20.750Z,27
2017-05-24T09:08:34.535Z,27
2017-05-24T09:09:48.749Z,27
2017-05-24T09:11:02.693Z,27
2017-05-24T09:12:17.131Z,27
2017-05-24T09:13:33.010Z,27
2017-05-24T09:14:47.155Z,27
2017-05-24T09:16:01.037Z,27
2017-05-24T09:17:14.966Z,27
2017-05-24T09:18:29.238Z,27
2017-05-24T09:19:43.795Z,27
2017-05-24T09:20:57.961Z,27
2017-05-24T09:22:11.877Z,27
2017-05-24T09:23:26.035Z,27
2017-05-24T09:24:39.817Z,27
2017-05-24T09:25:54.031Z,27
2017-05-24T09:27:08.206Z,27
2017-05-24T09:28:22.025Z,27
2017-05-24T09:29:36.286Z,27
2017-05-24T09:30:50.226Z,27
2017-05-24T09:32:04.496Z,27
2017-05-24T09:33:18.421Z,27
2017-05-24T09:34:34.134Z,27
2017-05-24T09:35:47.939Z,27
2017-05-24T09:37:01.797Z,27
2017-05-24T09:38:16.079Z,27
2017-05-24T09:39:29.965Z,27
2017-05-24T09:40:45.109Z,27
2017-05-24T09:41:58.845Z,27
2017-05-24T09:43:13.362Z,27
2017-05-24T09:44:27.217Z,27
2017-05-24T09:45:41.013Z,27
2017-05-24T09:46:55.067Z,27
2017-05-24T09:48:09.177Z,27
2017-05-24T09:49:23.363Z,27
2017-05-24T09:50:39.244Z,27
2017-05-24T09:51:53.026Z,27
2017-05-24T09:53:07.532Z,27
2017-05-24T09:54:21.288Z,27
2017-05-24T09:55:36.849Z,27
2017-05-24T09:56:50.563Z,27
2017-05-24T09:58:04.445Z,27
2017-05-24T09:59:18.642Z,27
2017-05-24T10:00:32.386Z,27
2017-05-24T10:01:46.275Z,27
2017-05-24T10:03:00.405Z,27
2017-05-24T10:04:14.154Z,27
2017-05-24T10:05:29.015Z,27
2017-05-24T10:06:43.135Z,27
2017-05-24T10:07:56.872Z,27
2017-05-24T10:09:10.957Z,27
2017-05-24T10:10:25.010Z,27
2017-05-24T10:11:39.179Z,27
2017-05-24T10:12:52.913Z,27
2017-05-24T10:14:06.816Z,27
2017-05-24T10:15:21.591Z,27
2017-05-24T10:16:35.411Z,27
2017-05-24T10:17:50.174Z,27
2017-05-24T10:19:04.033Z,27
2017-05-24T10:20:17.804Z,27
2017-05-24T10:21:31.905Z,27
2017-05-24T10:22:46.849Z,27
2017-05-24T10:24:00.743Z,27
2017-05-24T10:25:14.707Z,27
2017-05-24T10:26:28.841Z,27
2017-05-24T10:27:43.080Z,27
2017-05-24T10:28:56.845Z,27
2017-05-24T10:30:10.728Z,27
2017-05-24T10:31:25.629Z,27
2017-05-24T10:32:39.477Z,27
2017-05-24T10:33:53.535Z,27
2017-05-24T10:35:07.613Z,27
2017-05-24T10:36:21.499Z,27
2017-05-24T10:37:35.675Z,27
2017-05-24T10:38:49.794Z,27
2017-05-24T10:40:03.536Z,27
2017-05-24T10:41:17.631Z,27
2017-05-24T10:42:31.574Z,27
2017-05-24T10:43:45.357Z,27
2017-05-24T10:44:59.119Z,27
2017-05-24T10:46:12.894Z,27
2017-05-24T10:47:26.679Z,27
2017-05-24T10:48:40.835Z,26
2017-05-24T10:49:54.542Z,26
2017-05-24T10:51:08.809Z,26
2017-05-24T10:52:23.734Z,26
2017-05-24T10:53:37.538Z,26
2017-05-24T10:54:51.272Z,26
2017-05-24T10:56:05.007Z,26
2017-05-24T10:57:18.972Z,26
2017-05-24T10:58:32.755Z,26
2017-05-24T10:59:46.874Z,26
2017-05-24T11:01:00.619Z,26
2017-05-24T11:02:14.666Z,26
2017-05-24T11:03:28.568Z,26
2017-05-24T11:04:42.350Z,26
2017-05-24T11:05:56.098Z,26
2017-05-24T11:07:09.829Z,27
2017-05-24T11:08:23.565Z,27
2017-05-24T11:09:37.776Z,27
2017-05-24T11:10:51.799Z,27
2017-05-24T11:12:05.571Z,27
2017-05-24T11:13:19.304Z,27
2017-05-24T11:14:34.892Z,27
2017-05-24T11:15:49.047Z,27
2017-05-24T11:17:02.786Z,27
2017-05-24T11:18:16.553Z,27
2017-05-24T11:19:30.381Z,27
2017-05-24T11:20:44.175Z,27
2017-05-24T11:21:57.966Z,27
2017-05-24T11:23:12.323Z,27
2017-05-24T11:24:26.493Z,27
2017-05-24T11:25:40.236Z,27
2017-05-24T11:26:54.323Z,27
2017-05-24T11:28:08.243Z,27
2017-05-24T11:29:22.827Z,27
2017-05-24T11:30:36.812Z,27
2017-05-24T11:31:52.406Z,27
2017-05-24T11:33:06.877Z,27
2017-05-24T11:34:20.959Z,27
2017-05-24T11:35:34.994Z,27
2017-05-24T11:36:49.397Z,27
2017-05-24T11:38:03.189Z,27
2017-05-24T11:39:16.945Z,27
2017-05-24T11:40:30.846Z,27
2017-05-24T11:41:45.259Z,27
2017-05-24T11:42:59.218Z,27
2017-05-24T11:44:13.959Z,27
2017-05-24T11:45:27.800Z,27
2017-05-24T11:46:41.576Z,27
2017-05-24T11:47:56.650Z,27
2017-05-24T11:49:11.427Z,27
2017-05-24T11:50:25.253Z,27
2017-05-24T11:51:39.329Z,26
2017-05-24T11:52:53.072Z,26
2017-05-24T11:54:07.487Z,26
2017-05-24T11:55:21.671Z,26
2017-05-24T11:56:35.418Z,26
2017-05-24T11:57:49.883Z,26
2017-05-24T11:59:03.988Z,26
2017-05-24T12:00:18.734Z,26
2017-05-24T12:01:33.195Z,27
2017-05-24T12:02:47.019Z,27
2017-05-24T12:04:01.138Z,27
2017-05-24T12:05:14.941Z,27
2017-05-24T12:06:30.273Z,27
2017-05-24T12:07:46.521Z,27
2017-05-24T12:09:00.691Z,27
2017-05-24T12:10:14.531Z,27
2017-05-24T12:11:29.491Z,27
2017-05-24T12:12:46.785Z,27
2017-05-24T12:14:01.366Z,27
2017-05-24T12:15:16.315Z,27
2017-05-24T12:16:30.797Z,27
2017-05-24T12:17:44.581Z,27
2017-05-24T12:18:58.368Z,27
2017-05-24T12:20:13.408Z,27
2017-05-24T12:21:27.743Z,27
2017-05-24T12:22:41.524Z,27
2017-05-24T12:23:55.257Z,27
2017-05-24T12:25:09.012Z,27
2017-05-24T12:26:23.814Z,27
2017-05-24T12:27:37.934Z,27
2017-05-24T12:28:52.441Z,27
2017-05-24T12:30:06.522Z,27
2017-05-24T12:31:20.963Z,27
2017-05-24T12:32:34.783Z,27
2017-05-24T12:33:49.236Z,27
2017-05-24T12:35:03.469Z,27
2017-05-24T12:36:19.463Z,27
2017-05-24T12:37:33.528Z,27
2017-05-24T12:38:47.427Z,27
2017-05-24T12:40:01.191Z,27
2017-05-24T12:41:14.925Z,27
2017-05-24T12:42:28.756Z,27
2017-05-24T12:43:42.922Z,27
2017-05-24T12:44:56.669Z,27
2017-05-24T12:46:10.474Z,27
2017-05-24T12:47:24.670Z,27
2017-05-24T12:48:38.436Z,27
2017-05-24T12:49:52.886Z,26
2017-05-24T12:51:06.611Z,26
2017-05-24T12:52:20.360Z,26
2017-05-24T12:53:34.167Z,26
2017-05-24T12:54:48.267Z,26
2017-05-24T12:56:02.602Z,26
2017-05-24T12:57:16.654Z,26
2017-05-24T12:58:30.490Z,26
2017-05-24T12:59:44.816Z,26
2017-05-24T13:00:58.635Z,26
2017-05-24T13:02:12.688Z,26
2017-05-24T13:03:27.153Z,26
2017-05-24T13:04:41.326Z,26
2017-05-24T13:05:55.065Z,26
2017-05-24T13:07:08.874Z,26
2017-05-24T13:08:25.265Z,26
2017-05-24T13:09:39.576Z,26
2017-05-24T13:10:53.367Z,26
2017-05-24T13:12:07.584Z,26
2017-05-24T13:13:21.358Z,26
2017-05-24T13:14:35.787Z,26
2017-05-24T13:15:49.660Z,26
2017-05-24T13:17:03.467Z,26
2017-05-24T13:18:17.200Z,26
2017-05-24T13:19:31.086Z,26
2017-05-24T13:20:45.785Z,26
2017-05-24T13:21:59.788Z,26
2017-05-24T13:23:13.791Z,26
2017-05-24T13:24:28.089Z,26
2017-05-24T13:25:41.859Z,26
2017-05-24T13:26:56.257Z,26
2017-05-24T13:28:10.080Z,26
2017-05-24T13:29:24.808Z,26
2017-05-24T13:30:39.954Z,26
2017-05-24T13:31:54.224Z,26
2017-05-24T13:33:08.893Z,26
2017-05-24T13:34:22.993Z,26
2017-05-24T13:35:37.193Z,26
2017-05-24T13:36:51.252Z,26
2017-05-24T13:38:05.381Z,26
2017-05-24T13:39:19.457Z,26
2017-05-24T13:40:33.655Z,26
2017-05-24T13:41:47.471Z,26
2017-05-24T13:43:01.550Z,26
2017-05-24T13:44:15.299Z,26
2017-05-24T13:45:29.789Z,26
2017-05-24T13:46:43.561Z,26
2017-05-24T13:47:57.833Z,27
2017-05-24T13:49:11.904Z,27
2017-05-24T13:50:25.765Z,27
2017-05-24T13:51:39.899Z,27
2017-05-24T13:52:53.872Z,27
2017-05-24T13:54:07.749Z,27
2017-05-24T13:55:21.647Z,27
2017-05-24T13:56:35.871Z,27
2017-05-24T13:57:50.227Z,27
2017-05-24T13:59:04.045Z,27
2017-05-24T14:00:18.227Z,27
2017-05-24T14:01:32.370Z,27
2017-05-24T14:02:46.451Z,27
2017-05-24T14:04:01.175Z,27
2017-05-24T14:05:14.950Z,27
2017-05-24T14:06:28.747Z,27
2017-05-24T14:07:42.831Z,27
2017-05-24T14:08:57.308Z,27
2017-05-24T14:10:12.321Z,27
2017-05-24T14:11:26.182Z,27
2017-05-24T14:12:39.996Z,27
2017-05-24T14:13:54.216Z,27
2017-05-24T14:15:08.169Z,27
2017-05-24T14:16:22.568Z,27
2017-05-24T14:17:36.805Z,27
2017-05-24T14:18:50.889Z,27
2017-05-24T14:20:04.697Z,27
2017-05-24T14:21:18.739Z,27
2017-05-24T14:22:33.174Z,27
2017-05-24T14:23:47.568Z,27
2017-05-24T14:25:01.305Z,27
2017-05-24T14:26:15.036Z,27
2017-05-24T14:27:30.250Z,27
2017-05-24T14:28:44.651Z,27
2017-05-24T14:29:58.421Z,27
2017-05-24T14:31:12.177Z,27
2017-05-24T14:32:26.335Z,27
2017-05-24T14:33:40.139Z,27
2017-05-24T14:34:54.197Z,27
2017-05-24T14:36:08.333Z,27
2017-05-24T14:37:22.500Z,27
2017-05-24T14:38:36.310Z,27
2017-05-24T14:39:50.137Z,27
2017-05-24T14:41:13.232Z,27
2017-05-24T14:42:30.251Z,27
2017-05-24T14:43:44.104Z,27
2017-05-24T14:44:58.207Z,27
2017-05-24T14:46:12.379Z,27
2017-05-24T14:47:26.436Z,27
2017-05-24T14:48:40.305Z,27
2017-05-24T14:49:54.026Z,27
2017-05-24T14:51:08.380Z,27
2017-05-24T14:52:22.568Z,27
2017-05-24T14:53:38.843Z,27
2017-05-24T14:54:53.035Z,27
2017-05-24T14:56:07.687Z,27
2017-05-24T14:57:41.361Z,27
2017-05-24T14:58:55.797Z,27
2017-05-24T15:00:09.856Z,27
2017-05-24T15:01:23.987Z,27
2017-05-24T15:02:38.635Z,27
2017-05-24T15:03:52.808Z,27
2017-05-24T15:05:06.883Z,27
2017-05-24T15:06:20.708Z,27
2017-05-24T15:07:35.625Z,27
2017-05-24T15:08:50.297Z,27
2017-05-24T15:10:04.250Z,27
2017-05-24T15:11:20.084Z,27
2017-05-24T15:12:34.157Z,27
2017-05-24T15:13:48.017Z,27
2017-05-24T15:15:02.424Z,27
2017-05-24T15:16:17.561Z,27
2017-05-24T15:17:32.036Z,27
2017-05-24T15:18:46.189Z,27
2017-05-24T15:20:00.117Z,27
2017-05-24T15:21:13.873Z,27
2017-05-24T15:22:27.617Z,27
2017-05-24T15:23:41.658Z,27
2017-05-24T15:24:55.467Z,27
2017-05-24T15:26:09.566Z,27
2017-05-24T15:27:23.655Z,27
2017-05-24T15:28:38.097Z,27
2017-05-24T15:29:53.111Z,27
2017-05-24T15:31:08.208Z,27
2017-05-24T15:32:23.427Z,27
2017-05-24T15:33:43.389Z,27
2017-05-24T15:34:57.598Z,27
2017-05-24T15:36:12.688Z,27
2017-05-24T15:37:26.858Z,27
2017-05-24T15:38:41.728Z,27
2017-05-24T15:40:01.623Z,27
2017-05-24T15:41:17.342Z,27
2017-05-24T15:42:32.912Z,27
2017-05-24T15:43:47.048Z,27
2017-05-24T15:45:02.303Z,27
2017-05-24T15:46:16.071Z,27
2017-05-24T15:47:30.747Z,27
2017-05-24T15:48:44.841Z,27
2017-05-24T15:49:59.216Z,27
2017-05-24T15:51:13.736Z,27
2017-05-24T15:52:27.836Z,27
2017-05-24T15:53:41.959Z,27
2017-05-24T15:54:56.110Z,27
2017-05-24T15:56:11.839Z,26
2017-05-24T15:57:27.107Z,26
2017-05-24T15:58:42.010Z,26
2017-05-24T15:59:56.169Z,26
2017-05-24T16:01:10.275Z,26
2017-05-24T16:02:25.141Z,26
2017-05-24T16:03:38.890Z,26
2017-05-24T16:04:53.086Z,26
2017-05-24T16:06:07.251Z,26
2017-05-24T16:07:21.857Z,26
2017-05-24T16:08:36.574Z,26
2017-05-24T16:09:50.554Z,26
2017-05-24T16:11:04.854Z,26
2017-05-24T16:12:19.057Z,26
2017-05-24T16:13:34.393Z,26
2017-05-24T16:14:49.096Z,26
2017-05-24T16:16:02.963Z,26
2017-05-24T16:17:17.423Z,26
2017-05-24T16:18:31.274Z,26
2017-05-24T16:19:47.606Z,26
2017-05-24T16:21:01.386Z,26
2017-05-24T16:22:15.663Z,26
2017-05-24T16:23:30.183Z,26
2017-05-24T16:24:43.980Z,26
2017-05-24T16:25:58.785Z,26
2017-05-24T16:27:12.529Z,26
2017-05-24T16:28:27.116Z,26
2017-05-24T16:29:41.336Z,26
2017-05-24T16:30:55.162Z,26
2017-05-24T16:32:10.006Z,26
2017-05-24T16:33:24.451Z,26
2017-05-24T16:34:38.312Z,26
2017-05-24T16:35:52.051Z,26
2017-05-24T16:37:06.136Z,26
2017-05-24T16:38:20.969Z,26
2017-05-24T16:39:35.225Z,26
2017-05-24T16:40:49.096Z,26
2017-05-24T16:42:04.123Z,26
2017-05-24T16:43:18.378Z,26
2017-05-24T16:44:32.439Z,26
2017-05-24T16:45:46.301Z,26
2017-05-24T16:47:00.365Z,26
2017-05-24T16:48:14.606Z,26
2017-05-24T16:49:28.840Z,26
2017-05-24T16:50:43.152Z,26
2017-05-24T16:51:57.292Z,26
2017-05-24T16:53:11.016Z,26
2017-05-24T16:54:25.197Z,26
2017-05-24T16:55:39.818Z,26
2017-05-24T16:56:54.209Z,26
2017-05-24T16:58:08.596Z,26
2017-05-24T16:59:23.397Z,26
2017-05-24T17:00:37.621Z,26
2017-05-24T17:01:51.549Z,26
2017-05-24T17:03:06.117Z,26
2017-05-24T17:04:21.755Z,26
2017-05-24T17:05:36.048Z,26
2017-05-24T17:06:50.167Z,26
2017-05-24T17:08:04.316Z,26
2017-05-24T17:09:18.415Z,26
2017-05-24T17:10:32.965Z,26
2017-05-24T17:11:47.055Z,26
2017-05-24T17:13:02.222Z,26
2017-05-24T17:14:22.316Z,26
2017-05-24T17:15:36.782Z,26
2017-05-24T17:16:50.571Z,26
2017-05-24T17:18:05.071Z,26
2017-05-24T17:19:19.742Z,26
2017-05-24T17:20:34.249Z,26
2017-05-24T17:21:48.728Z,26
2017-05-24T17:23:03.513Z,26
2017-05-24T17:24:18.118Z,26
2017-05-24T17:25:32.118Z,26
2017-05-24T17:26:47.138Z,26
2017-05-24T17:28:01.581Z,26
2017-05-24T17:29:17.526Z,26
2017-05-24T17:30:32.277Z,26
2017-05-24T17:31:46.063Z,26
2017-05-24T17:32:59.982Z,26
2017-05-24T17:34:14.452Z,26
2017-05-24T17:35:29.007Z,26
2017-05-24T17:36:43.223Z,26
2017-05-24T17:37:57.358Z,26
2017-05-24T17:39:13.537Z,26
2017-05-24T17:40:27.654Z,26
2017-05-24T17:41:41.471Z,26
2017-05-24T17:42:57.875Z,26